createdAt,value
2022-09-19T00:00:45.332Z,9.05
2022-09-19T00:05:49.283Z,9.23
2022-09-19T00:10:52.027Z,8.93
2022-09-19T00:15:54.477Z,8.95
2022-09-19T00:20:58.298Z,9.01
2022-09-19T00:26:01.867Z,9.08
2022-09-19T00:31:04.718Z,9.03
2022-09-19T00:36:10.165Z,9.03
2022-09-19T00:41:16.395Z,9.15
2022-09-19T00:46:21.025Z,9.28
2022-09-19T00:51:29.230Z,9.42
2022-09-19T00:56:32.265Z,9.41
2022-09-19T01:01:34.764Z,9.77
2022-09-19T01:06:49.625Z,9.75
2022-09-19T01:12:05.187Z,9.98
2022-09-19T01:17:13.882Z,10.13
2022-09-19T01:22:28.704Z,10.06
2022-09-19T01:27:57.228Z,9.99
2022-09-19T01:33:05.143Z,9.98
2022-09-19T01:38:11.698Z,10.13
2022-09-19T01:43:17.264Z,10.25
2022-09-19T01:48:23.460Z,10.04
2022-09-19T01:53:39.889Z,9.89
2022-09-19T01:58:51.823Z,10.04
2022-09-19T02:04:02.084Z,9.93
2022-09-19T02:09:10.119Z,9.62
2022-09-19T02:14:17.672Z,10.14
2022-09-19T02:19:25.831Z,10.29
2022-09-19T02:24:31.716Z,10.33
2022-09-19T02:29:37.729Z,10.40
2022-09-19T02:34:40.925Z,10.53
2022-09-19T02:39:50.741Z,10.77
2022-09-19T02:45:08.987Z,10.57
2022-09-19T02:50:16.148Z,10.68
2022-09-19T02:55:23.520Z,10.64
2022-09-19T03:00:27.441Z,10.44
2022-09-19T03:05:30.767Z,10.80
2022-09-19T03:10:37.352Z,10.96
2022-09-19T03:15:48.588Z,10.97
2022-09-19T03:20:55.685Z,10.65
2022-09-19T03:25:58.099Z,10.64
2022-09-19T03:31:02.121Z,10.72
2022-09-19T03:36:08.982Z,10.80
2022-09-19T03:41:11.452Z,10.26
2022-09-19T03:46:18.113Z,10.28
2022-09-19T03:51:21.157Z,10.14
2022-09-19T03:56:23.614Z,10.83
2022-09-19T04:01:27.453Z,11.00
2022-09-19T04:06:29.943Z,10.56
2022-09-19T04:11:32.632Z,10.78
2022-09-19T04:16:36.894Z,11.07
2022-09-19T04:21:43.143Z,11.04
2022-09-19T04:26:46.196Z,10.83
2022-09-19T04:31:50.384Z,10.93
2022-09-19T04:36:52.910Z,10.77
2022-09-19T04:41:55.347Z,10.82
2022-09-19T04:46:59.309Z,10.46
2022-09-19T04:52:02.416Z,10.62
2022-09-19T04:57:06.323Z,10.54
2022-09-19T05:02:10.246Z,10.98
2022-09-19T05:07:14.737Z,10.96
2022-09-19T05:12:17.335Z,10.83
2022-09-19T05:17:21.141Z,10.56
2022-09-19T05:22:23.554Z,10.57
2022-09-19T05:27:27.602Z,10.38
2022-09-19T05:32:33.205Z,10.62
2022-09-19T05:37:35.840Z,11.15
2022-09-19T05:42:41.593Z,11.46
2022-09-19T05:47:45.734Z,11.44
2022-09-19T05:53:06.093Z,11.40
2022-09-19T05:58:09.671Z,11.64
2022-09-19T06:03:17.118Z,11.62
2022-09-19T06:08:21.594Z,11.59
2022-09-19T06:13:24.968Z,11.55
2022-09-19T06:18:30.101Z,11.45
2022-09-19T06:23:32.578Z,11.32
2022-09-19T06:28:35.587Z,11.60
2022-09-19T06:33:42.356Z,11.41
2022-09-19T06:38:44.841Z,12.01
2022-09-19T06:43:47.502Z,12.19
2022-09-19T06:48:51.694Z,11.78
2022-09-19T06:53:54.289Z,11.43
2022-09-19T06:58:57.109Z,11.58
2022-09-19T07:04:01.244Z,11.50
2022-09-19T07:09:04.241Z,11.88
2022-09-19T07:14:06.750Z,11.83
2022-09-19T07:19:10.665Z,11.99
2022-09-19T07:24:13.107Z,11.86
2022-09-19T07:29:15.567Z,12.15
2022-09-19T07:34:19.382Z,12.30
2022-09-19T07:39:24.560Z,12.36
2022-09-19T07:44:31.384Z,12.31
2022-09-19T07:49:35.198Z,12.82
2022-09-19T07:54:37.658Z,12.37
2022-09-19T07:59:40.769Z,12.92
2022-09-19T08:04:44.537Z,13.04
2022-09-19T08:09:47.042Z,13.22
2022-09-19T08:14:49.696Z,13.77
2022-09-19T08:19:53.620Z,13.49
2022-09-19T08:24:57.092Z,13.63
2022-09-19T08:30:00.002Z,13.66
2022-09-19T08:35:04.166Z,13.56
2022-09-19T08:40:20.263Z,13.48
2022-09-19T08:45:29.841Z,14.12
2022-09-19T08:50:36.554Z,14.09
2022-09-19T08:55:42.209Z,14.23
2022-09-19T09:00:47.655Z,14.61
2022-09-19T09:05:57.160Z,14.50
2022-09-19T09:11:07.037Z,14.56
2022-09-19T09:16:18.359Z,14.58
2022-09-19T09:21:30.088Z,14.71
2022-09-19T09:26:39.986Z,14.86
2022-09-19T09:31:46.970Z,14.30
2022-09-19T09:36:56.205Z,14.50
2022-09-19T09:42:03.102Z,14.33
2022-09-19T09:47:15.263Z,14.59
2022-09-19T09:52:32.182Z,14.25
2022-09-19T09:57:46.375Z,14.31
2022-09-19T10:03:17.016Z,14.50
2022-09-19T10:08:29.521Z,14.73
2022-09-19T10:13:39.307Z,15.07
2022-09-19T10:18:45.557Z,14.84
2022-09-19T10:23:49.386Z,15.14
2022-09-19T10:28:54.595Z,15.64
2022-09-19T10:33:57.195Z,15.73
2022-09-19T10:39:05.481Z,15.06
2022-09-19T10:44:17.182Z,15.18
2022-09-19T10:49:24.176Z,15.43
2022-09-19T10:54:35.182Z,16.16
2022-09-19T10:59:40.342Z,16.48
2022-09-19T11:04:55.175Z,16.36
2022-09-19T11:10:02.360Z,16.84
2022-09-19T11:15:05.363Z,17.01
2022-09-19T11:20:20.935Z,16.84
2022-09-19T11:25:30.333Z,20.39
2022-09-19T11:30:41.829Z,25.81
2022-09-19T11:35:50.495Z,25.74
2022-09-19T11:41:07.809Z,23.44
2022-09-19T11:46:22.280Z,21.84
2022-09-19T11:51:31.703Z,21.45
2022-09-19T11:56:50.852Z,24.22
2022-09-19T12:02:02.097Z,19.79
2022-09-19T12:07:22.335Z,16.77
2022-09-19T12:12:32.547Z,16.37
2022-09-19T12:17:43.821Z,15.89
2022-09-19T12:22:52.921Z,16.71
2022-09-19T12:28:07.193Z,17.69
2022-09-19T12:33:15.409Z,19.11
2022-09-19T12:38:25.946Z,24.48
2022-09-19T12:43:40.068Z,28.78
2022-09-19T12:48:53.662Z,30.50
2022-09-19T12:54:07.355Z,30.48
2022-09-19T12:59:18.060Z,28.52
2022-09-19T13:04:31.168Z,22.91
2022-09-19T13:09:39.597Z,20.82
2022-09-19T13:14:48.934Z,19.90
2022-09-19T13:20:13.067Z,21.48
2022-09-19T13:25:16.396Z,26.07
2022-09-19T13:30:50.003Z,22.06
2022-09-19T13:35:54.838Z,20.56
2022-09-19T13:41:05.367Z,20.80
2022-09-19T13:46:16.541Z,20.10
2022-09-19T13:51:33.732Z,20.94
2022-09-19T13:56:38.403Z,26.97
2022-09-19T14:01:56.653Z,25.37
2022-09-19T14:12:56.852Z,23.43
2022-09-19T14:23:36.686Z,21.39
2022-09-19T14:28:54.299Z,19.46
2022-09-19T14:34:23.340Z,18.41
2022-09-19T14:40:00.159Z,18.24
2022-09-19T14:45:41.500Z,20.19
2022-09-19T14:50:50.683Z,18.24
2022-09-19T14:56:00.797Z,18.40
2022-09-19T15:01:08.760Z,17.77
2022-09-19T15:06:18.178Z,16.04
2022-09-19T15:11:22.524Z,16.65
2022-09-19T15:16:25.308Z,16.76
2022-09-19T15:21:33.199Z,16.52
2022-09-19T15:26:45.505Z,16.01
2022-09-19T15:31:50.362Z,14.95
2022-09-19T15:36:53.394Z,13.56
2022-09-19T15:41:59.824Z,13.16
2022-09-19T15:47:06.348Z,13.43
2022-09-19T15:52:11.186Z,14.06
2022-09-19T15:57:32.159Z,14.68
2022-09-19T16:02:40.032Z,13.93
2022-09-19T16:08:01.099Z,11.80
2022-09-19T16:13:08.486Z,12.51
2022-09-19T16:18:19.568Z,13.23
2022-09-19T16:23:24.194Z,13.38
2022-09-19T16:28:33.274Z,12.97
2022-09-19T16:33:38.677Z,13.17
2022-09-19T16:38:41.698Z,13.28
2022-09-19T16:43:47.776Z,13.54
2022-09-19T16:48:50.284Z,13.66
2022-09-19T16:53:53.082Z,13.84
2022-09-19T16:58:57.618Z,13.36
2022-09-19T17:03:59.977Z,12.87
2022-09-19T17:09:02.463Z,12.91
2022-09-19T17:14:12.527Z,13.36
2022-09-19T17:19:15.395Z,12.74
2022-09-19T17:24:17.929Z,12.89
2022-09-19T17:29:21.790Z,12.76
2022-09-19T17:34:24.301Z,11.84
2022-09-19T17:39:29.774Z,12.40
2022-09-19T17:44:33.838Z,12.50
2022-09-19T17:49:36.397Z,12.56
2022-09-19T17:54:39.195Z,12.16
2022-09-19T17:59:42.973Z,12.50
2022-09-19T18:04:45.388Z,12.56
2022-09-19T18:09:48.116Z,12.47
2022-09-19T18:14:51.935Z,11.93
2022-09-19T18:19:54.524Z,11.93
2022-09-19T18:24:57.757Z,11.99
2022-09-19T18:30:02.095Z,11.87
2022-09-19T18:35:05.021Z,12.29
2022-09-19T18:40:10.488Z,12.07
2022-09-19T18:45:14.564Z,11.89
2022-09-19T18:50:17.353Z,12.09
2022-09-19T18:55:23.047Z,11.79
2022-09-19T19:00:26.998Z,11.54
2022-09-19T19:05:30.038Z,11.64
2022-09-19T19:10:34.265Z,11.90
2022-09-19T19:15:38.194Z,12.17
2022-09-19T19:20:41.159Z,12.01
2022-09-19T19:25:44.408Z,11.75
2022-09-19T19:30:53.510Z,11.87
2022-09-19T19:36:04.216Z,11.48
2022-09-19T19:41:07.917Z,11.86
2022-09-19T19:46:13.191Z,11.90
2022-09-19T19:51:18.485Z,11.86
2022-09-19T19:56:23.255Z,12.08
2022-09-19T20:01:32.658Z,12.13
2022-09-19T20:06:37.168Z,12.20
2022-09-19T20:11:40.373Z,12.24
2022-09-19T20:16:46.051Z,12.23
2022-09-19T20:21:50.764Z,11.74
2022-09-19T20:26:55.755Z,11.86
2022-09-19T20:32:01.689Z,11.92
2022-09-19T20:37:05.945Z,12.17
2022-09-19T20:42:08.553Z,11.83
2022-09-19T20:47:12.646Z,12.44
2022-09-19T20:52:15.156Z,12.87
2022-09-19T20:57:17.625Z,12.67
2022-09-19T21:02:21.528Z,12.02
2022-09-19T21:07:24.295Z,11.71
2022-09-19T21:12:43.639Z,11.58
2022-09-19T21:17:50.981Z,11.28
2022-09-19T21:22:54.850Z,11.41
2022-09-19T21:27:59.391Z,11.30
2022-09-19T21:33:03.097Z,11.35
2022-09-19T21:38:05.878Z,11.04
2022-09-19T21:43:08.542Z,11.23
2022-09-19T21:48:12.461Z,11.59
2022-09-19T21:53:15.010Z,11.70
2022-09-19T21:58:17.610Z,11.74
2022-09-19T22:03:22.505Z,11.87
2022-09-19T22:08:24.970Z,11.97
2022-09-19T22:13:27.539Z,12.04
2022-09-19T22:18:32.151Z,11.93
2022-09-19T22:23:35.819Z,12.00
2022-09-19T22:28:39.924Z,12.24
2022-09-19T22:33:45.847Z,11.78
2022-09-19T22:38:48.873Z,11.84
2022-09-19T22:43:52.571Z,11.06
2022-09-19T22:48:56.876Z,11.20
2022-09-19T22:53:59.755Z,11.89
2022-09-19T22:59:04.654Z,11.69
2022-09-19T23:04:08.589Z,11.25
2022-09-19T23:09:13.770Z,11.46
2022-09-19T23:14:18.822Z,11.25
2022-09-19T23:19:23.978Z,11.23
2022-09-19T23:24:28.285Z,11.06
2022-09-19T23:29:32.705Z,11.22
2022-09-19T23:34:36.485Z,11.48
2022-09-19T23:39:38.934Z,11.49
2022-09-19T23:44:41.664Z,11.07
2022-09-19T23:49:46.233Z,11.16
2022-09-19T23:54:49.492Z,10.65
2022-09-19T23:59:51.963Z,11.29
